sensor_id;sensor_type;location;lat;lon;timestamp;pressure;altitude;pressure_sealevel;temperature;humidity
44198;BME280;30157;55.512;37.764;2023-12-04T00:01:55;98791.06;;;-7.80;96.02
44198;BME280;30157;55.512;37.764;2023-12-04T00:04:21;98771.69;;;-7.98;96.02
44198;BME280;30157;55.512;37.764;2023-12-04T00:06:47;98795.94;;;-7.83;96.21
44198;BME280;30157;55.512;37.764;2023-12-04T00:09:12;98804.69;;;-7.77;96.11
44198;BME280;30157;55.512;37.764;2023-12-04T00:11:38;98792.53;;;-7.84;95.91
44198;BME280;30157;55.512;37.764;2023-12-04T00:14:04;98803.81;;;-7.77;96.03
44198;BME280;30157;55.512;37.764;2023-12-04T00:16:33;98813.03;;;-7.78;96.20
44198;BME280;30157;55.512;37.764;2023-12-04T00:18:59;98737.78;;;-8.21;95.64
44198;BME280;30157;55.512;37.764;2023-12-04T00:21:24;98794.44;;;-7.80;95.64
44198;BME280;30157;55.512;37.764;2023-12-04T00:23:50;98820.59;;;-7.61;95.64
44198;BME280;30157;55.512;37.764;2023-12-04T00:26:16;98818.84;;;-7.62;95.61
44198;BME280;30157;55.512;37.764;2023-12-04T00:28:42;98822.69;;;-7.69;95.71
44198;BME280;30157;55.512;37.764;2023-12-04T00:31:08;98832.16;;;-7.65;95.63
44198;BME280;30157;55.512;37.764;2023-12-04T00:33:34;98842.88;;;-7.69;95.80
44198;BME280;30157;55.512;37.764;2023-12-04T00:36:00;98839.78;;;-7.80;95.56
44198;BME280;30157;55.512;37.764;2023-12-04T00:38:25;98854.41;;;-7.89;95.47
44198;BME280;30157;55.512;37.764;2023-12-04T00:40:51;98815.50;;;-8.11;95.71
44198;BME280;30157;55.512;37.764;2023-12-04T00:43:17;98846.91;;;-8.04;95.72
44198;BME280;30157;55.512;37.764;2023-12-04T00:45:42;98871.16;;;-8.06;95.67
44198;BME280;30157;55.512;37.764;2023-12-04T00:48:08;98874.31;;;-8.10;95.69
44198;BME280;30157;55.512;37.764;2023-12-04T00:50:34;98810.56;;;-8.57;95.79
44198;BME280;30157;55.512;37.764;2023-12-04T00:52:59;98877.09;;;-8.20;95.69
44198;BME280;30157;55.512;37.764;2023-12-04T00:55:25;98871.47;;;-8.31;95.42
44198;BME280;30157;55.512;37.764;2023-12-04T00:57:51;98800.00;;;-8.81;95.26
44198;BME280;30157;55.512;37.764;2023-12-04T01:00:17;98872.41;;;-8.46;95.52
44198;BME280;30157;55.512;37.764;2023-12-04T01:02:42;98887.56;;;-8.44;95.76
44198;BME280;30157;55.512;37.764;2023-12-04T01:05:08;98877.03;;;-8.53;95.81
44198;BME280;30157;55.512;37.764;2023-12-04T01:07:34;98888.38;;;-8.45;95.76
44198;BME280;30157;55.512;37.764;2023-12-04T01:10:00;98887.09;;;-8.53;95.58
44198;BME280;30157;55.512;37.764;2023-12-04T01:12:26;98885.78;;;-8.62;95.64
44198;BME280;30157;55.512;37.764;2023-12-04T01:14:52;98876.84;;;-8.71;95.62
44198;BME280;30157;55.512;37.764;2023-12-04T01:17:18;98875.63;;;-8.78;95.62
44198;BME280;30157;55.512;37.764;2023-12-04T01:19:44;98886.16;;;-8.70;95.46
44198;BME280;30157;55.512;37.764;2023-12-04T01:22:09;98878.84;;;-8.81;95.50
44198;BME280;30157;55.512;37.764;2023-12-04T01:24:35;98892.03;;;-8.85;95.67
44198;BME280;30157;55.512;37.764;2023-12-04T01:27:01;98880.75;;;-8.91;95.68
44198;BME280;30157;55.512;37.764;2023-12-04T01:29:27;98819.00;;;-9.31;95.72
44198;BME280;30157;55.512;37.764;2023-12-04T01:31:53;98891.88;;;-8.88;96.01
44198;BME280;30157;55.512;37.764;2023-12-04T01:34:18;98892.91;;;-8.84;96.05
44198;BME280;30157;55.512;37.764;2023-12-04T01:36:44;98890.56;;;-8.81;95.49
44198;BME280;30157;55.512;37.764;2023-12-04T01:39:10;98818.84;;;-9.19;94.99
44198;BME280;30157;55.512;37.764;2023-12-04T01:41:35;98874.88;;;-8.92;94.62
44198;BME280;30157;55.512;37.764;2023-12-04T01:44:01;98822.66;;;-9.26;94.73
44198;BME280;30157;55.512;37.764;2023-12-04T01:46:27;98814.84;;;-9.31;94.75
44198;BME280;30157;55.512;37.764;2023-12-04T01:48:53;98868.53;;;-9.00;94.87
44198;BME280;30157;55.512;37.764;2023-12-04T01:51:19;98810.34;;;-9.36;95.07
44198;BME280;30157;55.512;37.764;2023-12-04T01:53:46;98898.28;;;-8.93;95.36
44198;BME280;30157;55.512;37.764;2023-12-04T01:56:13;98885.84;;;-9.05;95.16
44198;BME280;30157;55.512;37.764;2023-12-04T01:58:40;98837.38;;;-9.32;95.29
44198;BME280;30157;55.512;37.764;2023-12-04T02:01:06;98888.81;;;-8.97;95.54
44198;BME280;30157;55.512;37.764;2023-12-04T02:03:32;98895.50;;;-8.98;95.43
44198;BME280;30157;55.512;37.764;2023-12-04T02:06:01;98913.97;;;-8.97;95.44
44198;BME280;30157;55.512;37.764;2023-12-04T02:08:29;98843.69;;;-9.39;95.41
44198;BME280;30157;55.512;37.764;2023-12-04T02:10:55;98910.59;;;-8.98;95.82
44198;BME280;30157;55.512;37.764;2023-12-04T02:13:21;98866.50;;;-9.21;95.64
44198;BME280;30157;55.512;37.764;2023-12-04T02:15:52;98918.47;;;-8.91;95.65
44198;BME280;30157;55.512;37.764;2023-12-04T02:18:19;98919.84;;;-8.97;95.73
44198;BME280;30157;55.512;37.764;2023-12-04T02:21:06;98853.31;;;-9.32;95.08
44198;BME280;30157;55.512;37.764;2023-12-04T02:23:32;98913.81;;;-9.00;94.93
44198;BME280;30157;55.512;37.764;2023-12-04T02:26:18;98923.50;;;-9.06;94.66
44198;BME280;30157;55.512;37.764;2023-12-04T02:28:53;98941.59;;;-9.12;94.74
44198;BME280;30157;55.512;37.764;2023-12-04T02:31:21;98919.72;;;-9.28;95.00
44198;BME280;30157;55.512;37.764;2023-12-04T02:33:52;98929.25;;;-9.22;95.15
44198;BME280;30157;55.512;37.764;2023-12-04T02:36:19;98951.38;;;-9.17;95.50
44198;BME280;30157;55.512;37.764;2023-12-04T02:38:46;98878.09;;;-9.66;95.20
44198;BME280;30157;55.512;37.764;2023-12-04T02:41:11;98950.91;;;-9.39;95.20
44198;BME280;30157;55.512;37.764;2023-12-04T02:43:37;98959.22;;;-9.40;95.03
44198;BME280;30157;55.512;37.764;2023-12-04T02:46:03;98898.25;;;-9.80;95.12
44198;BME280;30157;55.512;37.764;2023-12-04T02:48:29;98982.59;;;-9.41;94.98
44198;BME280;30157;55.512;37.764;2023-12-04T02:50:55;98937.91;;;-9.74;94.76
44198;BME280;30157;55.512;37.764;2023-12-04T02:53:21;99000.09;;;-9.43;94.98
44198;BME280;30157;55.512;37.764;2023-12-04T02:55:46;99000.09;;;-9.43;94.76
44198;BME280;30157;55.512;37.764;2023-12-04T02:58:12;99008.69;;;-9.39;94.85
44198;BME280;30157;55.512;37.764;2023-12-04T03:00:38;99009.28;;;-9.43;94.88
44198;BME280;30157;55.512;37.764;2023-12-04T03:03:03;98988.63;;;-9.53;95.19
44198;BME280;30157;55.512;37.764;2023-12-04T03:05:29;98972.69;;;-9.67;95.34
44198;BME280;30157;55.512;37.764;2023-12-04T03:07:55;99020.94;;;-9.31;95.62
44198;BME280;30157;55.512;37.764;2023-12-04T03:10:20;99029.38;;;-9.30;95.75
44198;BME280;30157;55.512;37.764;2023-12-04T03:12:46;99031.09;;;-9.29;95.83
44198;BME280;30157;55.512;37.764;2023-12-04T03:15:12;99039.09;;;-9.21;95.62
44198;BME280;30157;55.512;37.764;2023-12-04T03:17:39;99040.16;;;-9.18;95.95
44198;BME280;30157;55.512;37.764;2023-12-04T03:20:05;99047.03;;;-9.15;95.74
44198;BME280;30157;55.512;37.764;2023-12-04T03:22:36;99020.00;;;-9.33;95.78
44198;BME280;30157;55.512;37.764;2023-12-04T03:25:02;99065.38;;;-9.03;95.83
44198;BME280;30157;55.512;37.764;2023-12-04T03:27:33;99070.88;;;-8.95;96.00
44198;BME280;30157;55.512;37.764;2023-12-04T03:29:58;99070.06;;;-8.94;96.26
44198;BME280;30157;55.512;37.764;2023-12-04T03:32:24;99075.66;;;-8.85;96.53
44198;BME280;30157;55.512;37.764;2023-12-04T03:34:50;99036.81;;;-9.03;96.50
44198;BME280;30157;55.512;37.764;2023-12-04T03:37:15;99074.03;;;-8.84;96.53
44198;BME280;30157;55.512;37.764;2023-12-04T03:39:41;99025.16;;;-9.16;96.01
44198;BME280;30157;55.512;37.764;2023-12-04T03:42:07;99041.00;;;-9.04;96.18
44198;BME280;30157;55.512;37.764;2023-12-04T03:44:32;99105.22;;;-8.67;96.25
44198;BME280;30157;55.512;37.764;2023-12-04T03:46:58;99112.00;;;-8.66;96.51
44198;BME280;30157;55.512;37.764;2023-12-04T03:49:24;99102.44;;;-8.72;96.54
44198;BME280;30157;55.512;37.764;2023-12-04T03:51:50;99117.19;;;-8.63;96.29
44198;BME280;30157;55.512;37.764;2023-12-04T03:54:16;99125.03;;;-8.58;95.90
44198;BME280;30157;55.512;37.764;2023-12-04T03:56:41;99119.91;;;-8.60;96.20
44198;BME280;30157;55.512;37.764;2023-12-04T03:59:09;99122.78;;;-8.54;95.76
44198;BME280;30157;55.512;37.764;2023-12-04T04:01:36;99147.34;;;-8.50;95.43
44198;BME280;30157;55.512;37.764;2023-12-04T04:04:01;99085.03;;;-8.82;94.84
44198;BME280;30157;55.512;37.764;2023-12-04T04:06:27;99072.88;;;-8.89;94.61
44198;BME280;30157;55.512;37.764;2023-12-04T04:08:53;99136.59;;;-8.47;94.73
44198;BME280;30157;55.512;37.764;2023-12-04T04:11:18;99151.44;;;-8.37;94.23
44198;BME280;30157;55.512;37.764;2023-12-04T04:13:44;99072.28;;;-8.85;93.91
44198;BME280;30157;55.512;37.764;2023-12-04T04:16:15;99141.00;;;-8.43;93.92
44198;BME280;30157;55.512;37.764;2023-12-04T04:18:42;99165.34;;;-8.29;93.45
44198;BME280;30157;55.512;37.764;2023-12-04T04:21:09;99160.50;;;-8.25;92.76
44198;BME280;30157;55.512;37.764;2023-12-04T04:23:35;99155.81;;;-8.34;92.85
44198;BME280;30157;55.512;37.764;2023-12-04T04:26:02;99123.16;;;-8.48;92.39
44198;BME280;30157;55.512;37.764;2023-12-04T04:28:28;99166.59;;;-8.22;92.94
44198;BME280;30157;55.512;37.764;2023-12-04T04:30:54;99062.63;;;-8.92;92.34
44198;BME280;30157;55.512;37.764;2023-12-04T04:33:19;99038.66;;;-9.01;92.37
44198;BME280;30157;55.512;37.764;2023-12-04T04:35:45;99082.22;;;-8.73;92.30
44198;BME280;30157;55.512;37.764;2023-12-04T04:38:11;99165.53;;;-8.25;92.28
44198;BME280;30157;55.512;37.764;2023-12-04T04:40:37;99164.84;;;-8.23;92.58
44198;BME280;30157;55.512;37.764;2023-12-04T04:43:09;99180.59;;;-8.12;92.92
44198;BME280;30157;55.512;37.764;2023-12-04T04:45:37;99173.72;;;-8.15;92.68
44198;BME280;30157;55.512;37.764;2023-12-04T04:48:02;99182.41;;;-8.10;92.60
44198;BME280;30157;55.512;37.764;2023-12-04T04:50:28;99182.59;;;-8.06;92.67
44198;BME280;30157;55.512;37.764;2023-12-04T04:52:55;99126.97;;;-8.39;92.59
44198;BME280;30157;55.512;37.764;2023-12-04T04:55:20;99124.16;;;-8.44;92.64
44198;BME280;30157;55.512;37.764;2023-12-04T04:57:46;99183.19;;;-8.11;92.57
44198;BME280;30157;55.512;37.764;2023-12-04T05:00:12;99201.19;;;-8.04;92.52
44198;BME280;30157;55.512;37.764;2023-12-04T05:02:38;99182.94;;;-8.15;92.63
44198;BME280;30157;55.512;37.764;2023-12-04T05:05:04;99179.28;;;-8.20;92.65
44198;BME280;30157;55.512;37.764;2023-12-04T05:07:31;99198.31;;;-8.11;92.59
44198;BME280;30157;55.512;37.764;2023-12-04T05:09:57;99209.59;;;-8.04;92.90
44198;BME280;30157;55.512;37.764;2023-12-04T05:12:23;99205.84;;;-8.11;93.06
44198;BME280;30157;55.512;37.764;2023-12-04T05:14:49;99213.19;;;-8.00;92.89
44198;BME280;30157;55.512;37.764;2023-12-04T05:17:14;99216.56;;;-8.00;92.86
44198;BME280;30157;55.512;37.764;2023-12-04T05:19:40;99229.84;;;-8.02;92.80
44198;BME280;30157;55.512;37.764;2023-12-04T05:22:06;99218.06;;;-8.03;92.85
44198;BME280;30157;55.512;37.764;2023-12-04T05:24:32;99226.09;;;-8.09;92.89
44198;BME280;30157;55.512;37.764;2023-12-04T05:26:58;99222.25;;;-8.17;93.04
44198;BME280;30157;55.512;37.764;2023-12-04T05:29:24;99239.75;;;-8.05;93.09
44198;BME280;30157;55.512;37.764;2023-12-04T05:31:49;99197.72;;;-8.35;92.83
44198;BME280;30157;55.512;37.764;2023-12-04T05:34:15;99254.88;;;-8.05;92.91
44198;BME280;30157;55.512;37.764;2023-12-04T05:36:41;99239.41;;;-8.12;92.90
44198;BME280;30157;55.512;37.764;2023-12-04T05:39:06;99276.94;;;-8.01;93.03
44198;BME280;30157;55.512;37.764;2023-12-04T05:41:32;99264.72;;;-7.95;92.43
44198;BME280;30157;55.512;37.764;2023-12-04T05:43:58;99268.88;;;-7.96;92.43
44198;BME280;30157;55.512;37.764;2023-12-04T05:46:24;99266.19;;;-7.99;92.64
44198;BME280;30157;55.512;37.764;2023-12-04T05:48:49;99284.28;;;-7.91;92.39
44198;BME280;30157;55.512;37.764;2023-12-04T05:51:15;99271.13;;;-8.00;92.40
44198;BME280;30157;55.512;37.764;2023-12-04T05:53:41;99287.41;;;-7.95;92.42
44198;BME280;30157;55.512;37.764;2023-12-04T05:56:07;99235.94;;;-8.27;92.16
44198;BME280;30157;55.512;37.764;2023-12-04T05:58:35;99295.91;;;-7.93;92.30
44198;BME280;30157;55.512;37.764;2023-12-04T06:01:01;99305.97;;;-7.93;92.16
44198;BME280;30157;55.512;37.764;2023-12-04T06:03:26;99238.47;;;-8.27;92.05
44198;BME280;30157;55.512;37.764;2023-12-04T06:05:52;99248.72;;;-8.24;91.94
44198;BME280;30157;55.512;37.764;2023-12-04T06:08:18;99315.47;;;-7.89;91.66
44198;BME280;30157;55.512;37.764;2023-12-04T06:10:43;99288.19;;;-8.10;91.41
44198;BME280;30157;55.512;37.764;2023-12-04T06:13:09;99260.19;;;-8.29;91.38
44198;BME280;30157;55.512;37.764;2023-12-04T06:15:35;99328.94;;;-7.88;91.44
44198;BME280;30157;55.512;37.764;2023-12-04T06:18:01;99263.47;;;-8.30;91.41
44198;BME280;30157;55.512;37.764;2023-12-04T06:20:26;99338.25;;;-7.87;91.67
44198;BME280;30157;55.512;37.764;2023-12-04T06:22:52;99344.31;;;-7.84;91.64
44198;BME280;30157;55.512;37.764;2023-12-04T06:25:19;99350.34;;;-7.82;91.47
44198;BME280;30157;55.512;37.764;2023-12-04T06:27:46;99345.47;;;-7.79;91.36
44198;BME280;30157;55.512;37.764;2023-12-04T06:30:12;99350.53;;;-7.79;91.12
44198;BME280;30157;55.512;37.764;2023-12-04T06:32:38;99354.69;;;-7.79;91.05
44198;BME280;30157;55.512;37.764;2023-12-04T06:35:04;99353.03;;;-7.79;91.22
44198;BME280;30157;55.512;37.764;2023-12-04T06:37:31;99333.00;;;-7.90;91.20
44198;BME280;30157;55.512;37.764;2023-12-04T06:39:59;99345.44;;;-7.94;91.06
44198;BME280;30157;55.512;37.764;2023-12-04T06:42:25;99342.13;;;-7.93;91.45
44198;BME280;30157;55.512;37.764;2023-12-04T06:44:51;99352.94;;;-7.80;91.34
44198;BME280;30157;55.512;37.764;2023-12-04T06:47:19;99339.78;;;-7.89;91.28
44198;BME280;30157;55.512;37.764;2023-12-04T06:49:47;99346.84;;;-7.84;91.19
44198;BME280;30157;55.512;37.764;2023-12-04T06:52:13;99360.78;;;-7.76;90.99
44198;BME280;30157;55.512;37.764;2023-12-04T06:54:39;99369.03;;;-7.78;91.50
44198;BME280;30157;55.512;37.764;2023-12-04T06:57:05;99369.81;;;-7.79;91.98
44198;BME280;30157;55.512;37.764;2023-12-04T06:59:31;99345.69;;;-7.89;91.94
44198;BME280;30157;55.512;37.764;2023-12-04T07:01:56;99327.63;;;-7.97;91.67
44198;BME280;30157;55.512;37.764;2023-12-04T07:04:22;99317.44;;;-7.98;91.42
44198;BME280;30157;55.512;37.764;2023-12-04T07:06:48;99377.22;;;-7.67;91.18
44198;BME280;30157;55.512;37.764;2023-12-04T07:09:14;99375.44;;;-7.70;90.90
44198;BME280;30157;55.512;37.764;2023-12-04T07:11:40;99361.38;;;-7.80;90.18
44198;BME280;30157;55.512;37.764;2023-12-04T07:14:06;99377.72;;;-7.73;90.12
44198;BME280;30157;55.512;37.764;2023-12-04T07:16:39;99383.44;;;-7.62;90.10
44198;BME280;30157;55.512;37.764;2023-12-04T07:19:05;99393.19;;;-7.53;89.47
44198;BME280;30157;55.512;37.764;2023-12-04T07:21:31;99377.44;;;-7.64;89.57
44198;BME280;30157;55.512;37.764;2023-12-04T07:23:56;99341.91;;;-7.82;89.57
44198;BME280;30157;55.512;37.764;2023-12-04T07:26:22;99398.72;;;-7.46;90.00
44198;BME280;30157;55.512;37.764;2023-12-04T07:28:48;99404.09;;;-7.39;89.82
44198;BME280;30157;55.512;37.764;2023-12-04T07:31:13;99408.75;;;-7.32;90.19
44198;BME280;30157;55.512;37.764;2023-12-04T07:33:39;99409.63;;;-7.32;89.53
44198;BME280;30157;55.512;37.764;2023-12-04T07:36:05;99421.44;;;-7.31;88.83
44198;BME280;30157;55.512;37.764;2023-12-04T07:38:31;99427.19;;;-7.33;88.26
44198;BME280;30157;55.512;37.764;2023-12-04T07:40:56;99408.59;;;-7.49;88.21
44198;BME280;30157;55.512;37.764;2023-12-04T07:43:22;99435.69;;;-7.31;87.90
44198;BME280;30157;55.512;37.764;2023-12-04T07:45:48;99416.72;;;-7.39;87.49
44198;BME280;30157;55.512;37.764;2023-12-04T07:48:13;99372.44;;;-7.78;87.89
44198;BME280;30157;55.512;37.764;2023-12-04T07:50:39;99430.69;;;-7.45;87.11
44198;BME280;30157;55.512;37.764;2023-12-04T07:53:05;99396.63;;;-7.66;87.39
44198;BME280;30157;55.512;37.764;2023-12-04T07:55:33;99469.06;;;-7.35;87.80
44198;BME280;30157;55.512;37.764;2023-12-04T07:57:59;99457.53;;;-7.32;87.56
44198;BME280;30157;55.512;37.764;2023-12-04T08:00:25;99409.81;;;-7.70;87.48
44198;BME280;30157;55.512;37.764;2023-12-04T08:02:51;99413.66;;;-7.62;88.00
44198;BME280;30157;55.512;37.764;2023-12-04T08:05:17;99465.47;;;-7.26;88.42
44198;BME280;30157;55.512;37.764;2023-12-04T08:07:43;99447.34;;;-7.33;88.12
44198;BME280;30157;55.512;37.764;2023-12-04T08:10:10;99467.03;;;-7.28;88.35
44198;BME280;30157;55.512;37.764;2023-12-04T08:12:36;99479.81;;;-7.24;88.37
44198;BME280;30157;55.512;37.764;2023-12-04T08:15:04;99475.09;;;-7.33;88.32
44198;BME280;30157;55.512;37.764;2023-12-04T08:17:33;99468.38;;;-7.33;88.66
44198;BME280;30157;55.512;37.764;2023-12-04T08:19:59;99471.09;;;-7.30;88.41
44198;BME280;30157;55.512;37.764;2023-12-04T08:22:26;99470.91;;;-7.33;88.44
44198;BME280;30157;55.512;37.764;2023-12-04T08:24:51;99483.25;;;-7.37;88.26
44198;BME280;30157;55.512;37.764;2023-12-04T08:27:17;99483.03;;;-7.40;88.24
44198;BME280;30157;55.512;37.764;2023-12-04T08:29:43;99469.00;;;-7.50;88.16
44198;BME280;30157;55.512;37.764;2023-12-04T08:32:09;99493.34;;;-7.37;88.15
44198;BME280;30157;55.512;37.764;2023-12-04T08:34:34;99493.34;;;-7.37;88.05
44198;BME280;30157;55.512;37.764;2023-12-04T08:37:00;99483.34;;;-7.36;87.60
44198;BME280;30157;55.512;37.764;2023-12-04T08:39:26;99497.72;;;-7.35;87.73
44198;BME280;30157;55.512;37.764;2023-12-04T08:41:52;99493.03;;;-7.29;87.49
44198;BME280;30157;55.512;37.764;2023-12-04T08:44:18;99495.53;;;-7.29;87.73
44198;BME280;30157;55.512;37.764;2023-12-04T08:46:44;99424.25;;;-7.68;87.37
44198;BME280;30157;55.512;37.764;2023-12-04T08:49:10;99480.91;;;-7.34;87.13
44198;BME280;30157;55.512;37.764;2023-12-04T08:51:35;99506.00;;;-7.22;87.04
44198;BME280;30157;55.512;37.764;2023-12-04T08:54:01;99504.81;;;-7.14;86.81
44198;BME280;30157;55.512;37.764;2023-12-04T08:56:28;99511.28;;;-7.04;86.48
44198;BME280;30157;55.512;37.764;2023-12-04T08:58:55;99506.84;;;-7.09;85.96
44198;BME280;30157;55.512;37.764;2023-12-04T09:01:20;99481.13;;;-7.16;85.36
44198;BME280;30157;55.512;37.764;2023-12-04T09:03:46;99513.13;;;-7.02;85.21
44198;BME280;30157;55.512;37.764;2023-12-04T09:06:12;99518.03;;;-6.90;84.45
44198;BME280;30157;55.512;37.764;2023-12-04T09:08:38;99498.44;;;-6.94;84.49
44198;BME280;30157;55.512;37.764;2023-12-04T09:11:04;99499.13;;;-6.97;84.44
44198;BME280;30157;55.512;37.764;2023-12-04T09:13:29;99525.06;;;-6.71;83.97
44198;BME280;30157;55.512;37.764;2023-12-04T09:15:57;99523.97;;;-6.75;83.19
44198;BME280;30157;55.512;37.764;2023-12-04T09:18:22;99509.97;;;-6.84;83.10
44198;BME280;30157;55.512;37.764;2023-12-04T09:20:48;99503.75;;;-6.89;83.10
44198;BME280;30157;55.512;37.764;2023-12-04T09:23:14;99534.19;;;-6.73;83.22
44198;BME280;30157;55.512;37.764;2023-12-04T09:25:39;99536.72;;;-6.73;83.19
44198;BME280;30157;55.512;37.764;2023-12-04T09:28:05;99531.72;;;-6.86;83.76
44198;BME280;30157;55.512;37.764;2023-12-04T09:30:31;99536.41;;;-6.93;83.89
44198;BME280;30157;55.512;37.764;2023-12-04T09:32:57;99538.66;;;-6.97;84.45
44198;BME280;30157;55.512;37.764;2023-12-04T09:35:22;99532.25;;;-7.05;84.50
44198;BME280;30157;55.512;37.764;2023-12-04T09:37:48;99515.22;;;-7.23;84.25
44198;BME280;30157;55.512;37.764;2023-12-04T09:40:16;99541.84;;;-7.00;83.92
44198;BME280;30157;55.512;37.764;2023-12-04T09:42:43;99542.63;;;-7.01;83.31
44198;BME280;30157;55.512;37.764;2023-12-04T09:45:09;99539.81;;;-7.05;83.40
44198;BME280;30157;55.512;37.764;2023-12-04T09:47:35;99562.13;;;-6.98;83.43
44198;BME280;30157;55.512;37.764;2023-12-04T09:50:02;99532.06;;;-7.09;83.37
44198;BME280;30157;55.512;37.764;2023-12-04T09:52:30;99493.34;;;-7.37;82.70
44198;BME280;30157;55.512;37.764;2023-12-04T09:54:57;99566.88;;;-7.03;83.56
44198;BME280;30157;55.512;37.764;2023-12-04T09:57:23;99561.84;;;-7.03;83.74
44198;BME280;30157;55.512;37.764;2023-12-04T09:59:51;99548.44;;;-7.02;83.24
44198;BME280;30157;55.512;37.764;2023-12-04T10:02:17;99551.06;;;-7.00;82.94
44198;BME280;30157;55.512;37.764;2023-12-04T10:04:44;99583.16;;;-6.84;82.43
44198;BME280;30157;55.512;37.764;2023-12-04T10:07:10;99593.41;;;-6.81;81.60
44198;BME280;30157;55.512;37.764;2023-12-04T10:09:35;99603.06;;;-6.89;81.49
44198;BME280;30157;55.512;37.764;2023-12-04T10:12:01;99603.38;;;-6.98;81.78
44198;BME280;30157;55.512;37.764;2023-12-04T10:14:27;99590.97;;;-7.08;81.52
44198;BME280;30157;55.512;37.764;2023-12-04T10:16:53;99608.91;;;-7.03;81.27
44198;BME280;30157;55.512;37.764;2023-12-04T10:19:24;99611.94;;;-7.09;81.35
44198;BME280;30157;55.512;37.764;2023-12-04T10:21:56;99609.03;;;-7.15;81.60
44198;BME280;30157;55.512;37.764;2023-12-04T10:24:34;99612.03;;;-7.21;82.01
44198;BME280;30157;55.512;37.764;2023-12-04T10:27:05;99622.31;;;-7.18;82.10
44198;BME280;30157;55.512;37.764;2023-12-04T10:29:45;99638.91;;;-7.08;82.53
44198;BME280;30157;55.512;37.764;2023-12-04T10:32:12;99628.91;;;-7.06;82.30
44198;BME280;30157;55.512;37.764;2023-12-04T10:34:40;99632.22;;;-7.07;82.76
44198;BME280;30157;55.512;37.764;2023-12-04T10:37:09;99556.00;;;-7.57;82.77
44198;BME280;30157;55.512;37.764;2023-12-04T10:39:46;99568.22;;;-7.50;83.21
44198;BME280;30157;55.512;37.764;2023-12-04T10:42:23;99570.44;;;-7.41;83.72
44198;BME280;30157;55.512;37.764;2023-12-04T10:44:49;99559.50;;;-7.41;82.99
44198;BME280;30157;55.512;37.764;2023-12-04T10:47:15;99630.84;;;-7.02;82.96
44198;BME280;30157;55.512;37.764;2023-12-04T10:49:42;99634.56;;;-7.11;82.92
44198;BME280;30157;55.512;37.764;2023-12-04T10:52:08;99643.38;;;-7.17;83.30
44198;BME280;30157;55.512;37.764;2023-12-04T10:54:34;99616.41;;;-7.32;83.34
44198;BME280;30157;55.512;37.764;2023-12-04T10:57:01;99423.47;;;-8.49;83.54
44198;BME280;30157;55.512;37.764;2023-12-04T10:59:35;99640.97;;;-7.29;83.76
44198;BME280;30157;55.512;37.764;2023-12-04T11:02:05;99641.13;;;-7.26;83.96
44198;BME280;30157;55.512;37.764;2023-12-04T11:04:31;99580.44;;;-7.56;83.95
44198;BME280;30157;55.512;37.764;2023-12-04T11:06:59;99652.00;;;-7.14;84.47
44198;BME280;30157;55.512;37.764;2023-12-04T11:09:26;99654.53;;;-7.14;84.49
44198;BME280;30157;55.512;37.764;2023-12-04T11:11:57;99664.25;;;-7.06;84.71
44198;BME280;30157;55.512;37.764;2023-12-04T11:14:25;99665.19;;;-7.04;84.65
44198;BME280;30157;55.512;37.764;2023-12-04T11:16:57;99608.53;;;-7.36;84.39
44198;BME280;30157;55.512;37.764;2023-12-04T11:19:29;99646.00;;;-7.16;84.95
44198;BME280;30157;55.512;37.764;2023-12-04T11:21:58;99611.28;;;-7.47;84.76
44198;BME280;30157;55.512;37.764;2023-12-04T11:24:25;99682.19;;;-7.15;84.91
44198;BME280;30157;55.512;37.764;2023-12-04T11:26:50;99628.25;;;-7.44;85.22
44198;BME280;30157;55.512;37.764;2023-12-04T11:29:17;99683.16;;;-7.13;84.90
44198;BME280;30157;55.512;37.764;2023-12-04T11:31:44;99677.53;;;-7.22;85.02
44198;BME280;30157;55.512;37.764;2023-12-04T11:34:11;99672.31;;;-7.26;85.05
44198;BME280;30157;55.512;37.764;2023-12-04T11:36:38;99672.50;;;-7.22;84.88
44198;BME280;30157;55.512;37.764;2023-12-04T11:39:08;99510.34;;;-8.15;84.41
44198;BME280;30157;55.512;37.764;2023-12-04T11:41:36;99688.56;;;-7.20;84.46
44198;BME280;30157;55.512;37.764;2023-12-04T11:44:02;99692.47;;;-7.26;84.68
44198;BME280;30157;55.512;37.764;2023-12-04T11:46:29;99687.22;;;-7.29;84.65
44198;BME280;30157;55.512;37.764;2023-12-04T11:49:27;99710.69;;;-7.16;84.61
44198;BME280;30157;55.512;37.764;2023-12-04T11:51:59;99629.00;;;-7.72;84.50
44198;BME280;30157;55.512;37.764;2023-12-04T11:54:27;99661.59;;;-7.62;84.62
44198;BME280;30157;55.512;37.764;2023-12-04T11:57:19;99656.03;;;-7.69;84.97
44198;BME280;30157;55.512;37.764;2023-12-04T11:59:49;99677.56;;;-7.61;84.74
44198;BME280;30157;55.512;37.764;2023-12-04T12:02:15;99664.69;;;-7.66;84.69
44198;BME280;30157;55.512;37.764;2023-12-04T12:04:42;99714.75;;;-7.45;84.90
44198;BME280;30157;55.512;37.764;2023-12-04T12:07:08;99694.63;;;-7.70;85.03
44198;BME280;30157;55.512;37.764;2023-12-04T12:09:35;99729.59;;;-7.50;85.14
44198;BME280;30157;55.512;37.764;2023-12-04T12:12:02;99696.66;;;-7.65;85.16
44198;BME280;30157;55.512;37.764;2023-12-04T12:14:28;99663.28;;;-7.87;85.53
44198;BME280;30157;55.512;37.764;2023-12-04T12:16:55;99672.91;;;-7.82;85.23
44198;BME280;30157;55.512;37.764;2023-12-04T12:19:21;99736.59;;;-7.46;85.45
44198;BME280;30157;55.512;37.764;2023-12-04T12:21:50;99729.22;;;-7.43;85.61
44198;BME280;30157;55.512;37.764;2023-12-04T12:24:18;99660.44;;;-7.92;86.00
44198;BME280;30157;55.512;37.764;2023-12-04T12:26:44;99741.50;;;-7.47;85.98
44198;BME280;30157;55.512;37.764;2023-12-04T12:29:11;99743.94;;;-7.49;86.23
44198;BME280;30157;55.512;37.764;2023-12-04T12:31:37;99684.97;;;-7.89;86.31
44198;BME280;30157;55.512;37.764;2023-12-04T12:34:03;99754.59;;;-7.53;86.42
44198;BME280;30157;55.512;37.764;2023-12-04T12:36:29;99736.75;;;-7.56;86.97
44198;BME280;30157;55.512;37.764;2023-12-04T12:39:01;99693.53;;;-7.87;87.14
44198;BME280;30157;55.512;37.764;2023-12-04T12:41:30;99743.22;;;-7.60;87.10
44198;BME280;30157;55.512;37.764;2023-12-04T12:43:56;99748.34;;;-7.58;87.14
44198;BME280;30157;55.512;37.764;2023-12-04T12:46:22;99756.81;;;-7.57;87.46
44198;BME280;30157;55.512;37.764;2023-12-04T12:48:48;99756.06;;;-7.56;87.15